Time;durP1;ratioP1;P1;durP2;ratioP2;P2;SDS_P1;SDS_P2;PMS_P1;PMS_P2;Temp;Humidity;BMP_temperature;BMP_pressure;BME280_temperature;BME280_humidity;BME280_pressure;Samples;Min_cycle;Max_cycle;Signal;HPM_P1;HPM_P2
2022/05/25 00:00:08;;;;;;;1.55;0.88;;;;;;;11.87;88.25;97079.06;5011583;28;20700;-63
2022/05/25 00:02:36;;;;;;;1.88;0.85;;;;;;;11.69;88.56;97081.97;5020084;28;20050;-63
2022/05/25 00:05:04;;;;;;;1.60;0.88;;;;;;;11.71;88.04;97077.09;5007755;28;20142;-63
2022/05/25 00:07:31;;;;;;;2.90;0.80;;;;;;;11.78;88.28;97073.31;5007157;28;20046;-62
2022/05/25 00:09:58;;;;;;;3.72;1.45;;;;;;;11.83;87.19;97071.44;5010827;28;20564;-63
2022/05/25 00:12:24;;;;;;;2.15;0.80;;;;;;;11.79;86.77;97077.69;5004745;28;20121;-63
2022/05/25 00:14:51;;;;;;;2.20;0.63;;;;;;;11.87;87.87;97082.56;5003922;28;20408;-62
2022/05/25 00:17:18;;;;;;;1.67;0.75;;;;;;;11.75;87.00;97092.84;5007184;28;20468;-62
2022/05/25 00:19:59;;;;;;;1.23;0.60;;;;;;;11.52;88.16;97093.03;5005903;28;20038;-63
2022/05/25 00:22:28;;;;;;;1.42;0.73;;;;;;;11.62;88.64;97096.88;5006971;28;20041;-63
2022/05/25 00:24:57;;;;;;;1.52;0.90;;;;;;;11.47;88.91;97086.78;5006054;28;20584;-63
2022/05/25 00:27:24;;;;;;;1.67;0.82;;;;;;;11.42;90.11;97085.69;5025485;28;20052;-63
2022/05/25 00:29:50;;;;;;;2.33;0.82;;;;;;;11.45;89.31;97087.03;4995981;28;20491;-63
2022/05/25 00:32:17;;;;;;;1.73;0.90;;;;;;;11.55;87.93;97094.41;5006176;28;20401;-63
2022/05/25 00:34:44;;;;;;;2.25;0.93;;;;;;;11.41;88.54;97096.78;5005868;28;20041;-62
2022/05/25 00:37:10;;;;;;;2.13;0.80;;;;;;;11.46;88.86;97096.78;5004713;28;20042;-63
2022/05/25 00:39:38;;;;;;;1.92;0.80;;;;;;;11.45;88.71;97087.03;5006603;28;20053;-63
2022/05/25 00:42:05;;;;;;;2.72;0.93;;;;;;;11.46;90.18;97088.66;5005125;28;20049;-62
2022/05/25 00:44:31;;;;;;;1.75;0.85;;;;;;;11.45;88.94;97089.75;5027404;28;20041;-63
2022/05/25 00:46:58;;;;;;;2.53;1.00;;;;;;;11.45;89.38;97096.00;5025889;28;20049;-63
2022/05/25 00:49:29;;;;;;;2.33;0.80;;;;;;;11.51;88.16;97096.84;5001382;28;20603;-63
2022/05/25 00:52:07;;;;;;;2.80;0.80;;;;;;;11.42;88.44;97103.81;5006156;28;20820;-63
2022/05/25 00:54:39;;;;;;;2.10;0.95;;;;;;;11.42;87.55;97099.22;5004994;28;20045;-63
2022/05/25 00:57:09;;;;;;;1.85;1.00;;;;;;;11.53;86.36;97101.97;5006784;28;20410;-63
2022/05/25 01:00:17;;;;;;;2.20;0.70;;;;;;;11.62;86.20;97105.00;5098152;27;20124;-63
2022/05/25 01:02:50;;;;;;;1.15;0.65;;;;;;;11.64;84.23;97106.38;5095216;28;20063;-63
2022/05/25 01:05:31;;;;;;;2.05;0.70;;;;;;;11.47;84.46;97109.28;5082759;28;20047;-63
2022/05/25 01:07:59;;;;;;;;;;;;;;;11.42;84.93;97103.81;5083842;28;20047;-63
2022/05/25 01:10:49;;;;;;;2.67;0.80;;;;;;;11.27;85.98;97108.09;5082341;28;20468;-62
2022/05/25 01:13:31;;;;;;;2.47;0.73;;;;;;;11.19;86.47;97105.88;5082998;28;20044;-62
2022/05/25 01:16:27;;;;;;;1.25;0.80;;;;;;;11.18;86.25;97120.53;5082162;28;20044;-63
2022/05/25 01:19:05;;;;;;;1.00;0.60;;;;;;;11.19;83.33;97122.16;5082436;28;20060;-63
2022/05/25 01:21:32;;;;;;;1.45;0.70;;;;;;;11.34;82.29;97121.41;5081820;28;20052;-63
2022/05/25 01:24:15;;;;;;;1.33;0.73;;;;;;;11.29;84.86;97124.09;5081900;28;20047;-63
2022/05/25 01:27:14;;;;;;;1.20;0.63;;;;;;;11.40;81.79;97119.56;5082686;28;20062;-61
2022/05/25 01:30:00;;;;;;;2.63;0.93;;;;;;;11.13;85.88;97117.78;5069498;28;20537;-62
2022/05/25 01:32:35;;;;;;;0.93;0.50;;;;;;;11.05;85.64;97127.19;5082291;28;20044;-62
2022/05/25 01:35:07;;;;;;;4.00;0.98;;;;;;;11.08;86.55;97123.16;5082247;28;20048;-62
2022/05/25 01:38:03;;;;;;;1.00;0.52;;;;;;;11.02;82.99;97115.00;5080251;28;20044;-62
2022/05/25 01:40:48;;;;;;;1.50;0.73;;;;;;;11.19;79.80;97122.97;5076583;28;20044;-62
2022/05/25 01:43:27;;;;;;;1.08;0.52;;;;;;;11.22;79.78;97115.38;5081548;28;20051;-62
2022/05/25 01:45:59;;;;;;;1.63;0.70;;;;;;;11.21;80.57;97114.59;5081689;28;20063;-62
2022/05/25 01:48:28;;;;;;;1.55;0.70;;;;;;;11.15;79.85;97113.75;5081632;28;20040;-63
2022/05/25 01:51:05;;;;;;;1.42;0.75;;;;;;;11.13;80.22;97109.66;5082501;28;20481;-63
2022/05/25 01:53:37;;;;;;;0.68;0.50;;;;;;;11.17;79.35;97114.28;5074516;28;20048;-62
2022/05/25 01:56:07;;;;;;;3.03;0.85;;;;;;;11.19;78.81;97114.84;5071747;28;20294;-63
2022/05/25 01:58:39;;;;;;;2.83;0.50;;;;;;;11.23;75.73;97114.28;5077816;28;20040;-63
2022/05/25 02:01:08;;;;;;;1.13;0.65;;;;;;;11.27;75.14;97115.41;5081533;28;20473;-63
2022/05/25 02:06:37;;;;;;;2.97;0.73;;;;;;;11.51;71.52;97118.53;5081577;28;20503;-63
2022/05/25 02:09:09;;;;;;;2.33;0.60;;;;;;;11.54;70.41;97120.69;5078323;28;20136;-63
2022/05/25 02:11:39;;;;;;;1.58;0.50;;;;;;;11.58;69.55;97121.78;5067927;28;20059;-62
2022/05/25 02:14:24;;;;;;;1.58;0.50;;;;;;;11.62;70.07;97119.38;5067827;28;20036;-62
2022/05/25 02:16:53;;;;;;;0.73;0.40;;;;;;;11.64;69.20;97125.34;5066864;28;20066;-62
2022/05/25 02:19:48;;;;;;;2.40;0.47;;;;;;;11.71;68.69;97122.38;5067181;28;20044;-62
2022/05/25 02:22:20;;;;;;;1.35;0.50;;;;;;;11.63;68.75;97123.72;5066217;28;20728;-62
2022/05/25 02:24:52;;;;;;;1.00;0.40;;;;;;;11.65;68.75;97123.47;5066950;28;20712;-62
2022/05/25 02:27:25;;;;;;;1.63;0.57;;;;;;;11.76;68.18;97130.53;5067027;28;20049;-62
2022/05/25 02:29:58;;;;;;;2.17;0.50;;;;;;;11.68;68.70;97128.34;5067511;28;20037;-62
2022/05/25 02:32:57;;;;;;;0.70;0.32;;;;;;;11.73;68.18;97130.25;5066334;28;20064;-62
2022/05/25 02:35:25;;;;;;;0.90;0.50;;;;;;;11.79;67.76;97130.00;5045563;28;20064;-62
2022/05/25 02:37:56;;;;;;;0.57;0.40;;;;;;;11.71;67.59;97125.09;5067655;28;20049;-62
2022/05/25 02:40:23;;;;;;;1.35;0.80;;;;;;;11.77;68.02;97140.34;5048349;28;20099;-63
2022/05/25 02:42:49;;;;;;;2.25;0.52;;;;;;;11.83;67.49;97138.44;5066564;28;20094;-62
2022/05/25 02:45:16;;;;;;;1.27;0.40;;;;;;;11.78;67.61;97138.41;5067518;28;20052;-63
2022/05/25 02:47:44;;;;;;;1.60;0.40;;;;;;;11.64;67.97;97135.41;5066102;28;20047;-62
2022/05/25 02:50:10;;;;;;;0.65;0.50;;;;;;;11.57;68.17;97133.72;5066586;28;20098;-63
2022/05/25 02:52:37;;;;;;;3.00;0.60;;;;;;;11.60;68.36;97143.22;5067297;28;20049;-63
2022/05/25 02:55:05;;;;;;;1.05;0.47;;;;;;;11.59;68.61;97133.47;5067186;28;20041;-63
2022/05/25 02:57:32;;;;;;;3.08;0.63;;;;;;;11.60;68.14;97135.09;5066079;28;20078;-62
2022/05/25 02:59:58;;;;;;;2.45;0.50;;;;;;;11.55;69.11;97141.31;5073662;28;20403;-63
2022/05/25 03:02:25;;;;;;;1.80;0.40;;;;;;;11.65;68.55;97135.09;5069379;28;20044;-63
2022/05/25 03:04:51;;;;;;;0.90;0.50;;;;;;;11.74;68.74;97137.31;5087947;28;20070;-63
2022/05/25 03:07:18;;;;;;;0.57;0.35;;;;;;;11.74;68.05;97145.44;5082094;28;20094;-62
2022/05/25 03:09:45;;;;;;;1.75;0.52;;;;;;;11.66;68.40;97138.66;5065913;28;20032;-63
2022/05/25 03:12:13;;;;;;;0.93;0.40;;;;;;;11.65;67.70;97142.44;5066613;28;20569;-63
2022/05/25 03:14:40;;;;;;;1.67;0.50;;;;;;;11.70;68.14;97147.88;5066496;28;20438;-63
2022/05/25 03:17:12;;;;;;;3.10;0.77;;;;;;;11.79;67.85;97140.88;5067007;28;20048;-62
2022/05/25 03:19:40;;;;;;;0.85;0.40;;;;;;;11.77;67.61;97143.03;5066548;28;20033;-63
2022/05/25 03:22:07;;;;;;;0.80;0.57;;;;;;;11.77;67.71;97151.19;5057186;28;20094;-63
2022/05/25 03:24:34;;;;;;;1.10;0.50;;;;;;;11.78;67.64;97143.84;5067034;28;20427;-62
2022/05/25 03:27:01;;;;;;;2.10;0.52;;;;;;;11.70;68.50;97151.44;5066111;28;20044;-63
2022/05/25 03:29:28;;;;;;;1.35;0.50;;;;;;;11.64;67.89;97146.25;5065139;28;20078;-62
2022/05/25 03:31:54;;;;;;;0.52;0.43;;;;;;;11.67;68.20;97149.22;5066098;28;20048;-62
2022/05/25 03:34:22;;;;;;;2.40;0.50;;;;;;;11.61;68.25;97154.91;5064721;28;20518;-62
2022/05/25 03:36:49;;;;;;;1.25;0.57;;;;;;;11.63;68.40;97158.16;5066061;28;20048;-62
2022/05/25 03:39:15;;;;;;;1.00;0.55;;;;;;;11.57;68.48;97166.28;5066254;28;20059;-62
2022/05/25 03:41:42;;;;;;;1.67;0.57;;;;;;;11.57;69.56;97168.97;5064680;28;20474;-62
2022/05/25 03:44:12;;;;;;;1.45;0.50;;;;;;;11.51;70.18;97175.47;5066660;28;20098;-62
2022/05/25 03:46:38;;;;;;;1.27;0.60;;;;;;;11.55;70.51;97173.03;5065118;28;20052;-62
2022/05/25 03:49:05;;;;;;;0.95;0.65;;;;;;;11.50;69.34;97179.22;5061282;28;20094;-63
2022/05/25 03:51:31;;;;;;;1.15;0.68;;;;;;;11.30;70.69;97180.75;5063202;28;20534;-62
2022/05/25 03:53:58;;;;;;;0.68;0.55;;;;;;;11.34;70.15;97191.06;5060300;28;20562;-62
2022/05/25 03:56:25;;;;;;;1.27;0.63;;;;;;;11.36;70.55;97184.34;5057218;28;20048;-63
2022/05/25 03:58:52;;;;;;;1.67;0.52;;;;;;;11.32;70.56;97197.56;5059189;28;20114;-62
2022/05/25 04:01:18;;;;;;;0.80;0.60;;;;;;;11.32;70.16;97194.06;5061621;28;20196;-63
2022/05/25 04:03:45;;;;;;;1.55;0.57;;;;;;;11.31;70.87;97201.38;5056133;28;20055;-62
2022/05/25 04:06:12;;;;;;;1.38;0.45;;;;;;;11.39;70.34;97208.19;5062473;28;20040;-63
2022/05/25 04:08:39;;;;;;;3.63;0.70;;;;;;;11.44;69.85;97208.25;5075096;28;20040;-62
2022/05/25 04:11:05;;;;;;;2.20;0.82;;;;;;;11.35;69.80;97208.97;5067219;28;20044;-63
2022/05/25 04:13:31;;;;;;;1.83;0.60;;;;;;;11.38;70.84;97216.56;5062929;28;20113;-63
2022/05/25 04:15:58;;;;;;;2.35;0.95;;;;;;;11.31;70.52;97211.38;5064178;28;20048;-63
2022/05/25 04:18:25;;;;;;;1.10;0.50;;;;;;;11.35;70.71;97220.63;5079293;28;20097;-62
2022/05/25 04:20:51;;;;;;;1.95;0.55;;;;;;;11.39;70.78;97223.66;5064277;28;20063;-63
2022/05/25 04:23:20;;;;;;;1.40;0.57;;;;;;;11.28;70.99;97231.69;5074898;28;20778;-63
2022/05/25 04:25:46;;;;;;;4.40;1.15;;;;;;;11.21;71.22;97233.81;5068642;28;20554;-62
2022/05/25 04:28:13;;;;;;;2.38;1.15;;;;;;;11.18;72.14;97231.63;5063624;28;20504;-62
2022/05/25 04:30:39;;;;;;;3.08;1.00;;;;;;;11.13;71.95;97234.31;5053480;28;20037;-63
2022/05/25 04:33:06;;;;;;;4.97;0.52;;;;;;;11.16;71.95;97244.59;5064462;28;20680;-63
2022/05/25 04:35:32;;;;;;;2.13;1.00;;;;;;;11.27;71.59;97243.63;5063922;28;20094;-63
2022/05/25 04:37:59;;;;;;;1.95;0.65;;;;;;;11.31;71.28;97250.16;5071267;28;20044;-63
2022/05/25 04:40:30;;;;;;;1.75;0.70;;;;;;;11.37;70.65;97252.91;5064532;28;20444;-63
2022/05/25 04:42:59;;;;;;;1.67;0.68;;;;;;;11.22;71.56;97256.31;5063079;28;20567;-63
2022/05/25 04:45:27;;;;;;;1.40;0.80;;;;;;;11.23;71.89;97255.22;5062350;28;20063;-63
2022/05/25 04:47:55;;;;;;;2.80;0.70;;;;;;;11.26;71.52;97255.53;5061670;28;20094;-63
2022/05/25 04:50:24;;;;;;;2.38;0.63;;;;;;;11.36;71.79;97262.13;5069596;28;20040;-65
2022/05/25 04:52:51;;;;;;;2.08;0.60;;;;;;;11.29;71.50;97265.88;5054015;28;20044;-64
2022/05/25 04:58:03;;;;;;;3.38;0.65;;;;;;;11.36;72.36;97270.25;5061952;28;20078;-63
2022/05/25 05:00:30;;;;;;;1.48;0.60;;;;;;;11.46;71.60;97278.44;5064148;28;20052;-63
2022/05/25 05:02:57;;;;;;;1.52;0.60;;;;;;;11.63;70.81;97285.59;5066790;28;20048;-63
2022/05/25 05:05:23;;;;;;;1.77;0.57;;;;;;;11.73;70.08;97284.88;5062745;28;20045;-63
2022/05/25 05:07:50;;;;;;;1.20;0.50;;;;;;;11.66;69.83;97290.53;5062263;28;20040;-62
2022/05/25 05:10:17;;;;;;;4.50;0.60;;;;;;;11.65;71.25;97288.88;5064978;28;20048;-63
2022/05/25 05:12:43;;;;;;;2.38;0.60;;;;;;;11.72;70.65;97292.19;5073884;28;20048;-63
2022/05/25 05:15:10;;;;;;;2.17;0.65;;;;;;;11.70;70.56;97292.47;5068898;28;20043;-63
2022/05/25 05:17:37;;;;;;;1.33;0.70;;;;;;;11.82;70.68;97292.25;5052548;28;20044;-63
2022/05/25 05:20:24;;;;;;;1.10;0.60;;;;;;;11.87;71.05;97301.50;5061250;28;20055;-63
2022/05/25 05:22:50;;;;;;;0.65;0.50;;;;;;;11.96;70.05;97299.94;5065391;28;20040;-63
2022/05/25 05:25:17;;;;;;;1.23;0.50;;;;;;;11.90;70.47;97299.06;5062119;28;20051;-63
2022/05/25 05:27:45;;;;;;;1.00;0.60;;;;;;;12.01;68.24;97299.94;5061124;28;20040;-63
2022/05/25 05:30:15;;;;;;;2.55;0.55;;;;;;;12.20;69.08;97305.78;5062352;28;20082;-64
2022/05/25 05:32:41;;;;;;;0.90;0.60;;;;;;;12.36;68.12;97308.56;5060020;28;20044;-63
2022/05/25 05:35:09;;;;;;;1.33;0.80;;;;;;;12.48;67.95;97311.88;5063230;28;20860;-63
2022/05/25 05:37:40;;;;;;;1.30;0.60;;;;;;;12.51;66.86;97313.25;5061056;28;20131;-63
2022/05/25 05:40:08;;;;;;;;;;;;;;;12.63;66.43;97313.00;5061874;28;20052;-63
2022/05/25 05:42:40;;;;;;;3.85;0.60;;;;;;;12.75;66.32;97315.47;5059538;28;19928;-63
2022/05/25 05:45:19;;;;;;;0.98;0.57;;;;;;;12.86;65.25;97317.13;5053557;28;20105;-63
2022/05/25 05:47:51;;;;;;;1.38;0.50;;;;;;;12.97;64.82;97317.97;5065276;28;20048;-63
2022/05/25 05:50:20;;;;;;;1.70;0.60;;;;;;;13.11;64.05;97323.72;5063223;28;20106;-63
2022/05/25 05:52:48;;;;;;;4.43;0.60;;;;;;;13.29;64.51;97323.44;5065908;28;20055;-63
2022/05/25 05:55:15;;;;;;;2.20;0.80;;;;;;;13.34;63.38;97328.91;5065851;28;20048;-63
2022/05/25 05:57:42;;;;;;;0.77;0.50;;;;;;;13.61;63.29;97325.13;5065568;28;20052;-64
2022/05/25 06:00:11;;;;;;;3.97;0.60;;;;;;;13.67;62.40;97329.47;5065356;28;20056;-63
2022/05/25 06:02:40;;;;;;;5.80;1.13;;;;;;;13.78;61.68;97331.09;5066561;28;20465;-63
2022/05/25 06:05:07;;;;;;;1.95;0.70;;;;;;;13.82;60.75;97339.50;5084572;28;20080;-63
2022/05/25 06:07:34;;;;;;;1.50;0.50;;;;;;;14.07;59.77;97331.59;5075776;28;20132;-63
2022/05/25 06:10:03;;;;;;;2.67;0.85;;;;;;;14.21;61.36;97340.00;5065589;28;20068;-63
2022/05/25 06:12:31;;;;;;;1.48;0.70;;;;;;;14.14;60.75;97346.56;5064611;28;20090;-63
2022/05/25 06:14:58;;;;;;;2.70;0.50;;;;;;;13.87;60.25;97349.59;5065526;28;20438;-63
2022/05/25 06:20:10;;;;;;;2.17;0.60;;;;;;;13.71;61.31;97359.69;5077867;28;20043;-63
2022/05/25 06:22:37;;;;;;;1.85;0.50;;;;;;;13.90;61.81;97355.28;5066689;28;20067;-64
2022/05/25 06:25:04;;;;;;;1.83;0.70;;;;;;;13.63;62.67;97361.84;5077140;28;20047;-63
2022/05/25 06:27:30;;;;;;;1.67;0.70;;;;;;;13.58;62.39;97367.31;5079664;28;20049;-63
2022/05/25 06:29:57;;;;;;;2.20;0.80;;;;;;;13.79;62.48;97364.56;5065522;28;20032;-63
2022/05/25 06:32:23;;;;;;;1.50;0.68;;;;;;;13.74;62.67;97367.28;5064524;28;20162;-63
2022/05/25 06:34:50;;;;;;;1.38;0.60;;;;;;;13.75;63.77;97377.09;5065775;28;20052;-63
2022/05/25 06:37:21;;;;;;;1.05;0.73;;;;;;;13.56;63.28;97366.75;5058267;28;20416;-63
2022/05/25 06:39:49;;;;;;;1.77;0.50;;;;;;;13.56;61.97;97379.53;5059819;28;20037;-63
2022/05/25 06:42:16;;;;;;;1.50;0.70;;;;;;;13.53;62.88;97376.25;5049988;28;20458;-63
2022/05/25 06:44:52;;;;;;;1.83;0.95;;;;;;;13.72;62.03;97372.19;5059837;28;20131;-64
2022/05/25 06:47:18;;;;;;;1.38;0.60;;;;;;;13.89;62.47;97380.06;5064235;28;20452;-63
2022/05/25 06:49:46;;;;;;;1.85;0.60;;;;;;;14.04;61.80;97379.22;5064470;28;20045;-64
2022/05/25 06:52:15;;;;;;;4.05;0.90;;;;;;;14.09;61.20;97381.13;5063227;28;20064;-64
2022/05/25 06:54:42;;;;;;;1.70;0.55;;;;;;;14.12;61.01;97392.28;5063468;28;20059;-64
2022/05/25 06:57:08;;;;;;;1.80;0.90;;;;;;;14.27;61.26;97387.91;5067369;28;20053;-64
2022/05/25 06:59:35;;;;;;;4.28;0.70;;;;;;;14.26;61.49;97387.09;5066585;28;20052;-64
2022/05/25 07:02:02;;;;;;;2.30;0.63;;;;;;;14.22;60.21;97401.56;5066300;28;20040;-64
2022/05/25 07:04:29;;;;;;;1.88;0.70;;;;;;;14.35;60.85;97391.97;5067466;28;20388;-63
2022/05/25 07:07:02;;;;;;;2.75;0.77;;;;;;;14.53;60.63;97402.28;5066563;28;20090;-64
2022/05/25 07:09:31;;;;;;;3.10;0.68;;;;;;;14.69;59.93;97396.78;5066569;28;20076;-64
2022/05/25 07:11:58;;;;;;;4.88;1.45;;;;;;;14.75;58.01;97394.84;5065631;28;20462;-63
2022/05/25 07:14:26;;;;;;;1.58;0.55;;;;;;;14.82;57.10;97400.84;5067268;28;20132;-63
2022/05/25 07:16:54;;;;;;;1.55;0.60;;;;;;;14.74;57.44;97404.13;5065881;28;20040;-64
2022/05/25 07:19:21;;;;;;;3.40;0.77;;;;;;;14.70;57.62;97407.41;5066540;28;20048;-63
2022/05/25 07:21:48;;;;;;;2.40;0.70;;;;;;;14.76;57.20;97407.38;5066406;28;20064;-63
2022/05/25 07:24:15;;;;;;;1.63;0.50;;;;;;;14.86;56.54;97410.13;5067185;28;20044;-64
2022/05/25 07:26:42;;;;;;;1.27;0.63;;;;;;;14.93;56.15;97402.44;5066404;28;20496;-63
2022/05/25 07:29:09;;;;;;;2.35;0.60;;;;;;;14.99;56.44;97410.56;5066648;28;20043;-64
2022/05/25 07:31:43;;;;;;;2.85;0.80;;;;;;;15.08;56.32;97412.44;5062103;28;20263;-64
2022/05/25 07:34:17;;;;;;;3.00;0.80;;;;;;;15.02;56.61;97416.31;5063991;28;20044;-63
2022/05/25 07:36:50;;;;;;;3.33;0.60;;;;;;;15.16;55.36;97413.78;5062842;28;20059;-63
2022/05/25 07:39:19;;;;;;;3.72;0.70;;;;;;;15.25;55.40;97415.94;5062914;28;20153;-64
2022/05/25 07:41:51;;;;;;;1.67;0.60;;;;;;;15.37;55.15;97400.00;5063832;28;20102;-64
2022/05/25 07:44:24;;;;;;;2.05;0.80;;;;;;;15.46;52.84;97411.97;5063787;28;20051;-63
2022/05/25 07:46:51;;;;;;;2.38;0.63;;;;;;;15.48;50.62;97414.38;5063221;28;20479;-63
2022/05/25 07:49:18;;;;;;;1.73;0.52;;;;;;;15.52;50.87;97406.47;5063419;28;20129;-64
2022/05/25 07:51:45;;;;;;;1.00;0.50;;;;;;;15.63;52.47;97418.97;5063840;28;20044;-63
2022/05/25 07:54:12;;;;;;;1.23;0.43;;;;;;;15.84;52.28;97416.88;5064141;28;20048;-63
2022/05/25 07:56:39;;;;;;;3.22;1.13;;;;;;;15.94;52.86;97418.75;5061980;28;20512;-63
2022/05/25 07:59:09;;;;;;;2.00;0.70;;;;;;;16.09;51.15;97422.44;5063566;28;20090;-63
2022/05/25 08:07:19;;;;;;;1.80;0.73;;;;;;;16.16;51.53;97422.09;5058733;28;20048;-63
2022/05/25 08:09:47;;;;;;;2.70;0.70;;;;;;;16.51;49.64;97425.56;5062898;28;20142;-63
2022/05/25 08:12:15;;;;;;;1.13;0.50;;;;;;;16.82;48.39;97424.41;5062229;28;20068;-63
2022/05/25 08:14:42;;;;;;;1.92;1.00;;;;;;;16.90;47.28;97426.50;5063102;28;20060;-63
2022/05/25 08:17:09;;;;;;;0.85;0.40;;;;;;;16.78;46.91;97426.94;5063799;28;20044;-63
2022/05/25 08:19:35;;;;;;;3.58;0.70;;;;;;;16.60;47.76;97423.84;5062144;28;20037;-62
2022/05/25 08:22:02;;;;;;;3.00;0.60;;;;;;;16.50;47.32;97423.94;5072906;28;20131;-63
2022/05/25 08:24:30;;;;;;;3.03;0.60;;;;;;;16.34;48.52;97424.13;5066420;28;20570;-63
2022/05/25 08:27:03;;;;;;;2.38;0.68;;;;;;;15.95;48.43;97431.28;5060952;28;20538;-63
2022/05/25 08:29:29;;;;;;;4.95;0.50;;;;;;;16.10;49.79;97437.72;5058965;28;20041;-63
2022/05/25 08:31:57;;;;;;;3.30;0.80;;;;;;;15.89;48.67;97435.13;5062499;28;20048;-62
2022/05/25 08:34:26;;;;;;;1.70;0.93;;;;;;;16.08;48.13;97429.81;5063326;28;20074;-62
2022/05/25 08:36:54;;;;;;;1.58;0.40;;;;;;;15.94;47.81;97420.63;5062437;28;20872;-63
2022/05/25 08:39:21;;;;;;;1.25;0.40;;;;;;;16.03;48.09;97410.72;5063367;28;20055;-63
2022/05/25 08:41:51;;;;;;;1.05;0.45;;;;;;;16.09;50.05;97419.69;5062239;28;20561;-62
2022/05/25 08:44:19;;;;;;;1.77;0.60;;;;;;;16.25;47.92;97429.38;5062964;28;20057;-63
2022/05/25 08:46:46;;;;;;;1.02;0.68;;;;;;;16.20;49.08;97426.72;5062285;28;20037;-63
2022/05/25 08:49:16;;;;;;;2.03;0.50;;;;;;;16.52;48.06;97428.00;5062663;28;20051;-63
2022/05/25 08:51:48;;;;;;;0.88;0.50;;;;;;;16.58;45.93;97420.56;5062312;28;20410;-62
2022/05/25 08:54:15;;;;;;;2.10;0.47;;;;;;;16.68;46.99;97421.56;5062261;28;20051;-63
2022/05/25 08:57:02;;;;;;;2.33;0.52;;;;;;;16.33;47.37;97418.94;5062842;28;20049;-62
2022/05/25 08:59:40;;;;;;;1.00;0.50;;;;;;;16.66;47.20;97415.59;5053651;28;20505;-62
2022/05/25 09:02:22;;;;;;;2.60;0.50;;;;;;;16.73;45.82;97421.53;5058648;28;20725;-63
2022/05/25 09:04:59;;;;;;;1.45;0.60;;;;;;;16.34;46.08;97424.13;5059699;28;20044;-65
2022/05/25 09:07:38;;;;;;;3.50;0.45;;;;;;;16.50;45.56;97422.03;5061701;28;20508;-62
2022/05/25 09:10:06;;;;;;;1.00;0.50;;;;;;;16.73;43.25;97416.84;5062287;28;20124;-62
2022/05/25 09:12:39;;;;;;;3.13;0.90;;;;;;;16.62;45.61;97426.28;5061945;28;20060;-62
2022/05/25 09:15:26;;;;;;;2.15;1.15;;;;;;;16.74;44.83;97421.22;5062375;28;20574;-63
2022/05/25 09:18:17;;;;;;;2.92;0.45;;;;;;;17.14;44.61;97417.50;5062875;28;20040;-62
2022/05/25 09:20:48;;;;;;;1.50;0.50;;;;;;;17.49;43.25;97423.56;5064225;28;20044;-62
2022/05/25 09:23:16;;;;;;;1.48;0.40;;;;;;;16.92;43.28;97427.03;5065929;28;20185;-63
2022/05/25 09:25:44;;;;;;;2.05;0.70;;;;;;;16.77;45.52;97428.03;5066402;28;20110;-62
2022/05/25 09:28:20;;;;;;;3.97;1.40;;;;;;;16.54;45.88;97432.41;5064833;28;20056;-62
2022/05/25 09:30:53;;;;;;;1.90;0.60;;;;;;;16.82;46.18;97430.72;5065561;28;20345;-63
2022/05/25 09:33:43;;;;;;;2.22;0.60;;;;;;;17.18;46.66;97434.13;5065878;28;20102;-62
2022/05/25 09:36:44;;;;;;;2.92;0.50;;;;;;;17.20;43.59;97438.19;5065628;28;20049;-62
2022/05/25 09:39:33;;;;;;;2.85;0.43;;;;;;;17.16;44.73;97434.41;5066200;28;20554;-63
2022/05/25 09:42:03;;;;;;;2.53;0.68;;;;;;;17.38;43.39;97427.56;5064133;28;20041;-63
2022/05/25 09:44:32;;;;;;;1.60;0.47;;;;;;;17.32;42.64;97426.00;5066163;28;20462;-62
2022/05/25 09:47:06;;;;;;;4.60;1.08;;;;;;;17.50;44.28;97435.31;5066294;28;20060;-62
2022/05/25 09:49:41;;;;;;;1.20;0.75;;;;;;;17.29;44.18;97441.91;5066497;28;20052;-62
2022/05/25 09:52:23;;;;;;;2.17;0.52;;;;;;;17.42;44.14;97436.81;5060897;28;20052;-62
2022/05/25 09:54:59;;;;;;;1.55;0.40;;;;;;;17.51;43.37;97440.50;5066401;28;20090;-62
2022/05/25 09:57:36;;;;;;;2.08;0.55;;;;;;;17.61;43.32;97438.75;5061302;28;20197;-62
2022/05/25 10:00:09;;;;;;;1.70;0.60;;;;;;;17.35;43.74;97439.09;5063563;28;20454;-63
2022/05/25 10:03:02;;;;;;;1.02;0.50;;;;;;;17.34;43.25;97442.94;5059208;28;20604;-63
2022/05/25 10:05:50;;;;;;;4.47;0.75;;;;;;;17.44;43.68;97445.56;5057817;28;20659;-62
2022/05/25 10:08:39;;;;;;;1.85;0.50;;;;;;;17.45;43.79;97438.97;5064342;28;20047;-63
2022/05/25 10:11:29;;;;;;;0.68;0.40;;;;;;;17.52;43.62;97441.31;5069208;28;20044;-62
2022/05/25 10:14:13;;;;;;;7.85;0.70;;;;;;;17.42;43.82;97437.63;5062705;28;20330;-62
2022/05/25 10:16:40;;;;;;;1.15;0.50;;;;;;;17.47;42.57;97442.19;5059759;28;20102;-62
2022/05/25 10:19:13;;;;;;;2.25;0.50;;;;;;;17.76;43.57;97446.72;5059216;28;20426;-62
2022/05/25 10:21:53;;;;;;;1.20;0.50;;;;;;;17.71;42.74;97445.97;5052309;28;20056;-63
2022/05/25 10:24:36;;;;;;;2.42;0.40;;;;;;;17.88;42.50;97453.66;5064698;28;20048;-62
2022/05/25 10:27:04;;;;;;;2.08;0.40;;;;;;;17.83;43.23;97445.53;5064580;28;20048;-62
2022/05/25 10:38:28;;;;;;;2.70;0.50;;;;;;;17.91;42.60;97431.97;5064346;28;20090;-63
2022/05/25 10:40:57;;;;;;;2.30;0.50;;;;;;;17.64;43.46;97440.88;5065566;28;20458;-62
2022/05/25 10:43:29;;;;;;;3.88;0.80;;;;;;;17.79;42.87;97435.16;5064162;28;20530;-62
2022/05/25 10:46:00;;;;;;;3.33;0.70;;;;;;;18.17;42.32;97439.00;5064548;28;20048;-63
2022/05/25 10:48:54;;;;;;;3.28;0.50;;;;;;;18.32;42.92;97438.69;5065000;28;20043;-62
2022/05/25 10:51:38;;;;;;;2.30;0.63;;;;;;;18.06;41.14;97427.34;5062972;28;20040;-63
2022/05/25 10:57:33;;;;;;;4.35;0.73;;;;;;;18.10;42.01;97433.06;5064687;28;20052;-63
2022/05/25 11:00:09;;;;;;;3.30;0.50;;;;;;;18.20;40.92;97443.84;5057740;28;20539;-63
2022/05/25 11:03:03;;;;;;;2.45;0.52;;;;;;;18.14;41.69;97434.91;5059337;28;20056;-62
2022/05/25 11:05:55;;;;;;;0.80;0.30;;;;;;;18.34;41.24;97435.66;5064165;28;20045;-63
2022/05/25 11:09:07;;;;;;;4.13;0.40;;;;;;;18.75;41.55;97438.78;5064629;28;20070;-63
2022/05/25 11:11:34;;;;;;;;;;;;;;;18.52;40.21;97431.22;5064418;28;20049;-62
2022/05/25 11:14:23;;;;;;;1.05;0.50;;;;;;;18.56;38.73;97431.44;5064405;28;19951;-62
2022/05/25 11:17:26;;;;;;;1.05;0.40;;;;;;;18.65;38.20;97421.38;5063060;28;20064;-62
2022/05/25 11:20:24;;;;;;;2.15;0.35;;;;;;;18.59;38.94;97431.66;5053888;28;20522;-62
2022/05/25 11:23:09;;;;;;;2.38;0.85;;;;;;;18.53;38.19;97446.56;5063762;28;20052;-62
2022/05/25 11:26:09;;;;;;;1.58;0.40;;;;;;;18.27;39.24;97430.56;5063574;28;20051;-62
2022/05/25 11:29:07;;;;;;;1.63;0.40;;;;;;;18.70;39.19;97426.78;5063623;28;20064;-63
2022/05/25 11:32:04;;;;;;;2.50;1.15;;;;;;;19.01;38.07;97430.03;5063900;28;20044;-62
2022/05/25 11:35:00;;;;;;;3.95;0.52;;;;;;;19.08;37.36;97425.78;5055069;28;20048;-62
2022/05/25 11:37:40;;;;;;;1.20;0.45;;;;;;;19.13;38.36;97435.03;5055186;28;20409;-63
2022/05/25 11:40:38;;;;;;;1.42;0.30;;;;;;;19.16;38.81;97424.22;5057991;28;20070;-62
2022/05/25 11:43:16;;;;;;;1.17;0.40;;;;;;;19.40;36.80;97441.56;5052084;28;20052;-63
2022/05/25 11:46:16;;;;;;;1.27;0.50;;;;;;;19.23;38.02;97437.53;5062005;28;20724;-63
2022/05/25 11:49:21;;;;;;;1.40;0.50;;;;;;;19.78;37.03;97437.72;5061514;28;20044;-62
2022/05/25 11:52:25;;;;;;;1.58;0.50;;;;;;;19.59;38.04;97447.75;5068458;28;20055;-63
2022/05/25 11:54:58;;;;;;;1.25;0.60;;;;;;;19.19;38.33;97437.34;5062743;28;20044;-62
2022/05/25 11:57:55;;;;;;;0.82;0.40;;;;;;;19.58;37.58;97434.31;5059280;28;20056;-62
2022/05/25 12:00:56;;;;;;;2.25;0.52;;;;;;;19.47;37.92;97436.47;5054050;28;20053;-62
2022/05/25 12:03:54;;;;;;;3.00;0.47;;;;;;;19.71;36.36;97427.13;5063029;28;20041;-63
2022/05/25 12:06:39;;;;;;;2.50;0.40;;;;;;;19.82;35.65;97419.47;5063491;28;20100;-63
2022/05/25 12:09:34;;;;;;;2.63;0.50;;;;;;;19.96;37.01;97431.22;5062700;28;20044;-62
2022/05/25 12:12:28;;;;;;;1.90;0.70;;;;;;;19.93;35.92;97426.34;5062458;28;20067;-62
2022/05/25 12:15:23;;;;;;;2.80;0.40;;;;;;;19.87;36.46;97431.13;5054055;28;20067;-63
2022/05/25 12:18:24;;;;;;;0.95;0.50;;;;;;;19.99;35.67;97424.31;5060349;28;20125;-62
2022/05/25 12:21:00;;;;;;;1.27;0.32;;;;;;;19.99;35.65;97432.56;5061549;28;20041;-62
2022/05/25 12:23:37;;;;;;;1.88;0.52;;;;;;;20.30;35.53;97418.03;5057447;28;20052;-62
2022/05/25 12:26:15;;;;;;;2.70;0.55;;;;;;;20.62;36.00;97429.84;5061935;28;20055;-63
2022/05/25 12:28:44;;;;;;;2.92;0.88;;;;;;;20.74;35.54;97418.22;5055197;28;20193;-62